Time;durP1;ratioP1;P1;durP2;ratioP2;P2;SDS_P1;SDS_P2;PMS_P1;PMS_P2;Temp;Humidity;BMP_temperature;BMP_pressure;BME280_temperature;BME280_humidity;BME280_pressure;Samples;Min_cycle;Max_cycle;Signal;HPM_P1;HPM_P2
2022/12/12 00:01:15;;;;;;;0.00;0.00;;;1.00;86.80;;;;;;5054807;28;20048;-65
2022/12/12 00:03:41;;;;;;;0.00;0.00;;;1.00;86.80;;;;;;5072387;28;20113;-65
2022/12/12 00:06:06;;;;;;;0.00;0.00;;;1.00;86.90;;;;;;5071817;28;20056;-65
2022/12/12 00:08:32;;;;;;;0.00;0.00;;;1.00;86.90;;;;;;5071965;28;20036;-65
2022/12/12 00:10:58;;;;;;;0.30;0.30;;;1.00;87.00;;;;;;5072210;28;20044;-65
2022/12/12 00:13:23;;;;;;;0.20;0.20;;;1.10;87.10;;;;;;5054154;28;20045;-65
2022/12/12 00:15:49;;;;;;;0.00;0.00;;;1.10;87.20;;;;;;5071823;28;20516;-65
2022/12/12 00:18:14;;;;;;;0.00;0.00;;;1.10;87.20;;;;;;5053749;28;20415;-65
2022/12/12 00:20:40;;;;;;;0.00;0.00;;;1.20;87.30;;;;;;5072020;28;20098;-65
2022/12/12 00:23:06;;;;;;;0.10;0.10;;;1.20;87.30;;;;;;5071773;28;20059;-65
2022/12/12 00:25:31;;;;;;;0.10;0.10;;;1.20;87.30;;;;;;5071953;28;20039;-65
2022/12/12 00:27:58;;;;;;;0.00;0.00;;;1.20;87.40;;;;;;5071699;28;20494;-65
2022/12/12 00:30:24;;;;;;;0.40;0.40;;;1.20;87.40;;;;;;5071651;28;20048;-65
2022/12/12 00:32:50;;;;;;;0.00;0.00;;;1.30;87.50;;;;;;5071882;28;20041;-65
2022/12/12 00:35:15;;;;;;;0.10;0.10;;;1.20;87.50;;;;;;5070960;28;20064;-65
2022/12/12 00:37:41;;;;;;;0.00;0.00;;;1.20;87.50;;;;;;5072073;28;20103;-65
2022/12/12 00:40:07;;;;;;;0.00;0.00;;;1.30;87.50;;;;;;5071850;28;20851;-65
2022/12/12 00:42:33;;;;;;;0.08;0.08;;;1.30;87.50;;;;;;5071817;28;20055;-65
2022/12/12 00:44:58;;;;;;;0.10;0.10;;;1.30;87.50;;;;;;5071538;28;20041;-65
2022/12/12 00:47:24;;;;;;;0.00;0.00;;;1.30;87.60;;;;;;5070975;28;20062;-66
2022/12/12 00:49:49;;;;;;;0.10;0.10;;;1.30;87.60;;;;;;5071639;28;20067;-65
2022/12/12 00:52:15;;;;;;;0.00;0.00;;;1.40;87.60;;;;;;5070788;28;20045;-66
2022/12/12 00:54:41;;;;;;;0.10;0.10;;;1.40;87.60;;;;;;5071036;28;20060;-65
2022/12/12 00:57:06;;;;;;;0.00;0.00;;;1.40;87.60;;;;;;5053757;28;20052;-65
2022/12/12 00:59:32;;;;;;;0.00;0.00;;;1.50;87.60;;;;;;5070964;28;20514;-65
2022/12/12 01:01:57;;;;;;;0.00;0.00;;;1.40;87.60;;;;;;5071453;28;20048;-65
2022/12/12 01:04:23;;;;;;;0.10;0.10;;;1.40;87.70;;;;;;5070932;28;20043;-65
2022/12/12 01:06:48;;;;;;;0.00;0.00;;;1.40;87.60;;;;;;5071220;28;20479;-65
2022/12/12 01:09:14;;;;;;;0.00;0.00;;;1.40;87.60;;;;;;5071170;28;20094;-65
2022/12/12 01:11:40;;;;;;;0.00;0.00;;;1.40;87.70;;;;;;5052838;28;20054;-65
2022/12/12 01:14:05;;;;;;;0.00;0.00;;;1.40;87.70;;;;;;5053154;28;20102;-65
2022/12/12 01:16:31;;;;;;;0.00;0.00;;;1.50;87.80;;;;;;5071033;28;20399;-65
2022/12/12 01:18:56;;;;;;;0.00;0.00;;;1.50;87.70;;;;;;5071077;28;20036;-65
2022/12/12 01:21:22;;;;;;;0.00;0.00;;;1.50;87.80;;;;;;5070621;28;20044;-65
2022/12/12 01:23:48;;;;;;;0.00;0.00;;;1.60;87.80;;;;;;5070659;28;20099;-65
2022/12/12 01:26:19;;;;;;;0.00;0.00;;;1.50;87.80;;;;;;5070787;28;20092;-65
2022/12/12 01:28:45;;;;;;;0.00;0.00;;;1.60;87.80;;;;;;5070895;28;20036;-65
2022/12/12 01:31:11;;;;;;;0.00;0.00;;;1.50;87.80;;;;;;5052409;28;20040;-65
2022/12/12 01:33:37;;;;;;;0.00;0.00;;;1.50;87.80;;;;;;5070476;28;20044;-63
2022/12/12 01:36:04;;;;;;;0.03;0.03;;;1.60;87.90;;;;;;5070529;28;20959;-65
2022/12/12 01:38:29;;;;;;;0.85;0.85;;;1.60;87.90;;;;;;5052828;28;20688;-65
2022/12/12 01:40:55;;;;;;;0.00;0.00;;;1.60;87.90;;;;;;5052074;28;20048;-65
2022/12/12 01:43:23;;;;;;;0.00;0.00;;;1.60;87.90;;;;;;5070080;28;20051;-65
2022/12/12 01:45:57;;;;;;;0.00;0.00;;;1.60;88.00;;;;;;5070248;28;20068;-65
2022/12/12 01:48:35;;;;;;;0.00;0.00;;;1.60;88.00;;;;;;5035663;28;20052;-65
2022/12/12 01:51:09;;;;;;;0.00;0.00;;;1.60;88.00;;;;;;5069905;28;20051;-66
2022/12/12 01:53:36;;;;;;;0.00;0.00;;;1.70;88.00;;;;;;5070079;28;20071;-65
2022/12/12 01:56:05;;;;;;;0.00;0.00;;;1.70;88.00;;;;;;5070072;28;20040;-65
2022/12/12 01:58:32;;;;;;;0.10;0.10;;;1.70;88.10;;;;;;5069933;28;20048;-66
2022/12/12 02:00:58;;;;;;;0.00;0.00;;;1.70;88.00;;;;;;5051544;28;20559;-66
2022/12/12 02:03:24;;;;;;;0.00;0.00;;;1.70;88.00;;;;;;5069124;28;20040;-65
2022/12/12 02:05:55;;;;;;;0.00;0.00;;;1.70;88.00;;;;;;5069904;28;20044;-65
2022/12/12 02:08:22;;;;;;;0.00;0.00;;;1.70;88.00;;;;;;5069847;28;20102;-65
2022/12/12 02:10:48;;;;;;;0.00;0.00;;;1.70;87.90;;;;;;5069894;28;20040;-65
2022/12/12 02:13:21;;;;;;;0.00;0.00;;;1.70;88.00;;;;;;5069650;28;20043;-65
2022/12/12 02:16:14;;;;;;;0.00;0.00;;;1.70;87.90;;;;;;5069727;28;20048;-66
2022/12/12 02:19:00;;;;;;;0.00;0.00;;;1.70;88.00;;;;;;5070030;28;20545;-65
2022/12/12 02:21:53;;;;;;;0.00;0.00;;;1.70;88.00;;;;;;5069749;28;20044;-66
2022/12/12 02:24:59;;;;;;;0.00;0.00;;;1.70;88.00;;;;;;5051420;28;20457;-65
2022/12/12 02:27:32;;;;;;;0.00;0.00;;;1.70;88.00;;;;;;5069708;28;20504;-66
2022/12/12 02:30:19;;;;;;;0.00;0.00;;;1.70;88.00;;;;;;5069801;28;20106;-65
2022/12/12 02:33:10;;;;;;;0.08;0.08;;;1.80;88.10;;;;;;5069514;28;20446;-66
2022/12/12 02:36:13;;;;;;;0.00;0.00;;;1.70;88.10;;;;;;5068959;28;20106;-65
2022/12/12 02:38:46;;;;;;;0.03;0.03;;;1.80;88.10;;;;;;5069430;28;20044;-66
2022/12/12 02:41:29;;;;;;;0.00;0.00;;;1.70;88.10;;;;;;5068949;28;20044;-65
2022/12/12 02:44:04;;;;;;;0.25;0.25;;;1.80;88.10;;;;;;5069351;28;20138;-65
2022/12/12 02:46:40;;;;;;;0.00;0.00;;;1.80;88.10;;;;;;5069124;28;20037;-66
2022/12/12 02:49:12;;;;;;;0.00;0.00;;;1.70;88.10;;;;;;5069490;28;20040;-65
2022/12/12 02:51:39;;;;;;;0.00;0.00;;;1.70;88.00;;;;;;5069195;28;20049;-66
2022/12/12 02:54:12;;;;;;;0.85;0.85;;;1.70;88.10;;;;;;5068834;28;20144;-66
2022/12/12 02:56:44;;;;;;;0.10;0.10;;;1.70;88.10;;;;;;5069196;28;20132;-65
2022/12/12 02:59:16;;;;;;;0.00;0.00;;;1.70;88.10;;;;;;5069093;28;20094;-66
2022/12/12 03:01:48;;;;;;;;;;;1.70;88.10;;;;;;5069619;28;20131;-67
2022/12/12 03:10:16;;;;;;;;;;;1.70;88.10;;;;;;5069519;28;20088;-66
2022/12/12 03:12:57;;;;;;;0.00;0.00;;;1.70;88.10;;;;;;5068933;28;19991;-66
2022/12/12 03:15:31;;;;;;;0.32;0.32;;;1.80;88.20;;;;;;5068465;28;20375;-65
2022/12/12 03:18:20;;;;;;;0.17;0.17;;;1.80;88.10;;;;;;5068873;28;20376;-65
2022/12/12 03:21:06;;;;;;;0.00;0.00;;;1.70;88.10;;;;;;5050869;28;20041;-65
2022/12/12 03:23:46;;;;;;;0.00;0.00;;;1.70;88.00;;;;;;5068961;28;20043;-65
2022/12/12 03:26:26;;;;;;;0.08;0.08;;;1.70;87.90;;;;;;5068755;28;20058;-66
2022/12/12 03:29:08;;;;;;;0.00;0.00;;;1.70;87.90;;;;;;5068624;28;20072;-66
2022/12/12 03:31:38;;;;;;;0.00;0.00;;;1.70;87.90;;;;;;5069036;28;20110;-66
2022/12/12 03:34:10;;;;;;;0.00;0.00;;;1.70;87.80;;;;;;5068170;28;20045;-65
2022/12/12 03:36:48;;;;;;;0.00;0.00;;;1.60;87.80;;;;;;5068564;28;20475;-66
2022/12/12 03:39:25;;;;;;;0.43;0.43;;;1.70;87.70;;;;;;5050585;28;20056;-65
2022/12/12 03:41:57;;;;;;;0.00;0.00;;;1.60;87.70;;;;;;5068259;28;20060;-65
2022/12/12 03:44:34;;;;;;;0.00;0.00;;;1.60;87.70;;;;;;5068180;28;20048;-65
2022/12/12 03:47:25;;;;;;;1.85;1.75;;;1.60;87.60;;;;;;5050573;28;20870;-66
2022/12/12 03:50:18;;;;;;;0.05;0.05;;;1.60;87.50;;;;;;5068632;28;20052;-66
2022/12/12 03:53:00;;;;;;;0.00;0.00;;;1.60;87.50;;;;;;5050062;28;20045;-65
2022/12/12 03:55:48;;;;;;;0.00;0.00;;;1.60;87.50;;;;;;5068162;28;20051;-65
2022/12/12 03:58:29;;;;;;;0.00;0.00;;;1.60;87.50;;;;;;5068605;28;20047;-66
2022/12/12 04:00:57;;;;;;;0.00;0.00;;;1.60;87.40;;;;;;5050193;28;20590;-65
2022/12/12 04:03:34;;;;;;;0.52;0.52;;;1.60;87.40;;;;;;5050339;28;20088;-65
2022/12/12 04:06:26;;;;;;;0.28;0.28;;;1.60;87.40;;;;;;5068273;28;20163;-66
2022/12/12 04:14:47;;;;;;;0.00;0.00;;;1.60;87.40;;;;;;5050715;28;20052;-66
2022/12/12 04:17:16;;;;;;;0.00;0.00;;;1.60;87.40;;;;;;5068485;28;20054;-66
2022/12/12 04:26:37;;;;;;;0.00;0.00;;;1.60;87.40;;;;;;5068142;28;20516;-66
2022/12/12 04:28:31;;;;;;;0.00;0.00;;;1.70;87.40;;;;;;5054373;28;20060;-65
2022/12/12 04:31:02;;;;;;;0.00;0.00;;;1.60;87.40;;;;;;5072101;28;20048;-65
2022/12/12 04:33:34;;;;;;;0.00;0.00;;;1.70;87.30;;;;;;5071409;28;20396;-65
2022/12/12 04:36:02;;;;;;;0.00;0.00;;;1.70;87.30;;;;;;5071655;28;20207;-66
2022/12/12 04:38:28;;;;;;;0.10;0.10;;;1.70;87.20;;;;;;5071628;28;20052;-66
2022/12/12 04:40:56;;;;;;;0.00;0.00;;;1.70;87.20;;;;;;5071993;28;20144;-66
2022/12/12 04:43:30;;;;;;;0.00;0.00;;;1.70;87.20;;;;;;5071415;28;20070;-65
2022/12/12 04:46:01;;;;;;;0.00;0.00;;;1.70;87.10;;;;;;5071838;28;20082;-66
2022/12/12 04:48:36;;;;;;;0.00;0.00;;;1.70;87.00;;;;;;5071580;28;20084;-65
2022/12/12 04:51:03;;;;;;;0.00;0.00;;;1.70;87.00;;;;;;5053638;28;20555;-66
2022/12/12 04:53:34;;;;;;;0.00;0.00;;;1.70;86.90;;;;;;5071341;28;20721;-66
2022/12/12 04:56:06;;;;;;;0.00;0.00;;;1.70;86.90;;;;;;5053267;28;20428;-66
2022/12/12 04:58:31;;;;;;;0.00;0.00;;;1.70;86.90;;;;;;5071655;28;20047;-65
2022/12/12 05:01:08;;;;;;;0.00;0.00;;;1.70;86.90;;;;;;5071588;28;20036;-66
2022/12/12 05:04:00;;;;;;;0.00;0.00;;;1.80;87.00;;;;;;5071862;28;20037;-65
2022/12/12 05:06:31;;;;;;;0.00;0.00;;;1.70;86.90;;;;;;5046591;28;20056;-65
2022/12/12 05:08:58;;;;;;;0.00;0.00;;;1.70;86.80;;;;;;5071304;28;20051;-65
2022/12/12 05:11:24;;;;;;;0.00;0.00;;;1.70;86.90;;;;;;5071063;28;20085;-65
2022/12/12 05:13:49;;;;;;;0.00;0.00;;;1.70;86.90;;;;;;5071218;28;20083;-66
2022/12/12 05:16:23;;;;;;;0.00;0.00;;;1.70;86.90;;;;;;5071116;28;20044;-65
2022/12/12 05:18:49;;;;;;;0.00;0.00;;;1.70;86.80;;;;;;5036606;28;20131;-65
2022/12/12 05:21:15;;;;;;;0.15;0.15;;;1.70;86.70;;;;;;5070951;28;20462;-65
2022/12/12 05:23:41;;;;;;;0.00;0.00;;;1.70;86.70;;;;;;5070897;28;20044;-66
2022/12/12 05:26:19;;;;;;;0.00;0.00;;;1.70;86.70;;;;;;5071106;28;20049;-65
2022/12/12 05:28:44;;;;;;;0.00;0.00;;;1.70;86.60;;;;;;5070685;28;20052;-65
2022/12/12 05:31:10;;;;;;;0.00;0.00;;;1.70;86.50;;;;;;5071182;28;20395;-65
2022/12/12 05:33:35;;;;;;;0.00;0.00;;;1.70;86.40;;;;;;5070820;28;20045;-65
2022/12/12 05:36:01;;;;;;;0.00;0.00;;;1.70;86.40;;;;;;5070665;28;20065;-64
2022/12/12 05:38:27;;;;;;;0.00;0.00;;;1.70;86.40;;;;;;5070289;28;20136;-65
2022/12/12 05:40:52;;;;;;;0.00;0.00;;;1.80;86.40;;;;;;5070713;28;20486;-66
2022/12/12 05:43:18;;;;;;;0.00;0.00;;;1.70;86.20;;;;;;5070991;28;20407;-66
2022/12/12 05:45:43;;;;;;;0.00;0.00;;;1.70;86.10;;;;;;5052511;28;20082;-66
2022/12/12 05:48:09;;;;;;;0.00;0.00;;;1.70;85.90;;;;;;5036070;28;20603;-65
2022/12/12 05:50:34;;;;;;;0.20;0.20;;;1.70;85.80;;;;;;5070259;28;20119;-65
2022/12/12 05:53:00;;;;;;;0.00;0.00;;;1.70;85.80;;;;;;5052617;28;20044;-65
2022/12/12 05:55:25;;;;;;;0.00;0.00;;;1.60;85.60;;;;;;5052383;28;20048;-65
2022/12/12 05:57:51;;;;;;;0.00;0.00;;;1.60;85.70;;;;;;5070053;28;20052;-65
2022/12/12 06:00:17;;;;;;;0.00;0.00;;;1.60;85.70;;;;;;5070340;28;20044;-65
2022/12/12 06:02:42;;;;;;;0.00;0.00;;;1.60;85.40;;;;;;5070209;28;20087;-65
2022/12/12 06:05:08;;;;;;;0.00;0.00;;;1.60;85.50;;;;;;5070177;28;20074;-66
2022/12/12 06:07:34;;;;;;;0.10;0.10;;;1.60;85.60;;;;;;5069619;28;20036;-65
2022/12/12 06:09:59;;;;;;;0.15;0.15;;;1.60;85.70;;;;;;5070373;28;20048;-66
2022/12/12 06:12:25;;;;;;;0.00;0.00;;;1.60;85.60;;;;;;5069977;28;20044;-66
2022/12/12 06:14:50;;;;;;;0.00;0.00;;;1.70;85.70;;;;;;5069979;28;20101;-65
2022/12/12 06:17:16;;;;;;;0.05;0.05;;;1.70;86.00;;;;;;5069871;28;20048;-65
2022/12/12 06:19:41;;;;;;;0.98;0.98;;;1.70;85.80;;;;;;5069872;28;20067;-65
2022/12/12 06:22:07;;;;;;;0.00;0.00;;;1.70;85.40;;;;;;5069528;28;20414;-66
2022/12/12 06:24:32;;;;;;;0.00;0.00;;;1.60;85.50;;;;;;5069930;28;20044;-65
2022/12/12 06:26:58;;;;;;;2.95;2.00;;;1.60;85.30;;;;;;5069866;28;20040;-64
2022/12/12 06:29:23;;;;;;;0.00;0.00;;;1.60;85.40;;;;;;5051728;28;20072;-65
2022/12/12 06:31:49;;;;;;;0.00;0.00;;;1.50;85.30;;;;;;5070023;28;20083;-65
2022/12/12 06:34:15;;;;;;;0.00;0.00;;;1.50;85.40;;;;;;5069090;28;20044;-65
2022/12/12 06:36:40;;;;;;;0.10;0.10;;;1.60;85.50;;;;;;5051559;28;20063;-64
2022/12/12 06:39:06;;;;;;;0.10;0.10;;;1.60;85.60;;;;;;5069439;28;20079;-65
2022/12/12 06:41:32;;;;;;;0.00;0.00;;;1.60;85.50;;;;;;5069483;28;20044;-64
2022/12/12 06:43:58;;;;;;;0.00;0.00;;;1.60;85.50;;;;;;5069600;28;20044;-64
2022/12/12 06:46:26;;;;;;;0.00;0.00;;;1.60;85.50;;;;;;5069468;28;20435;-65
2022/12/12 06:48:52;;;;;;;0.00;0.00;;;1.60;85.60;;;;;;5068890;28;20045;-65
2022/12/12 06:51:21;;;;;;;0.10;0.10;;;1.60;85.60;;;;;;5069310;28;20052;-65
2022/12/12 06:53:47;;;;;;;0.22;0.22;;;1.60;85.60;;;;;;5051434;28;20555;-64
2022/12/12 06:56:16;;;;;;;0.08;0.08;;;1.60;85.50;;;;;;5069271;28;20128;-64
2022/12/12 06:58:41;;;;;;;0.00;0.00;;;1.60;85.40;;;;;;5068361;28;20056;-64
2022/12/12 07:01:07;;;;;;;0.00;0.00;;;1.60;85.40;;;;;;5050856;28;20063;-65
2022/12/12 07:03:33;;;;;;;0.00;0.00;;;1.60;85.40;;;;;;5068859;28;20398;-66
2022/12/12 07:06:00;;;;;;;0.00;0.00;;;1.60;85.40;;;;;;5051715;28;20511;-65
2022/12/12 07:08:27;;;;;;;0.10;0.10;;;1.60;85.40;;;;;;5068927;28;20049;-64
2022/12/12 07:10:53;;;;;;;0.05;0.05;;;1.60;85.50;;;;;;5068790;28;20086;-64
2022/12/12 07:13:18;;;;;;;0.00;0.00;;;1.70;85.50;;;;;;5050474;28;20522;-65
2022/12/12 07:15:46;;;;;;;0.00;0.00;;;1.70;85.60;;;;;;5068726;28;20053;-64
2022/12/12 07:18:12;;;;;;;0.10;0.10;;;1.70;85.70;;;;;;5068569;28;20044;-67
2022/12/12 07:20:41;;;;;;;0.00;0.00;;;1.70;85.80;;;;;;5068694;28;20106;-66
2022/12/12 07:23:07;;;;;;;0.00;0.00;;;1.80;86.30;;;;;;5067803;28;20117;-68
2022/12/12 07:25:36;;;;;;;0.00;0.00;;;1.80;86.10;;;;;;5068550;28;20049;-65
2022/12/12 07:28:01;;;;;;;0.10;0.10;;;1.80;86.00;;;;;;5034859;28;20454;-64
2022/12/12 07:30:27;;;;;;;0.00;0.00;;;1.90;86.20;;;;;;5050913;28;20041;-65
2022/12/12 07:32:52;;;;;;;0.10;0.10;;;1.90;86.20;;;;;;5068758;28;20066;-65
2022/12/12 07:35:18;;;;;;;0.38;0.38;;;1.90;86.10;;;;;;5068353;28;20052;-64
2022/12/12 07:37:44;;;;;;;0.05;0.05;;;1.90;86.00;;;;;;5068123;28;20082;-65
2022/12/12 07:40:09;;;;;;;0.10;0.10;;;1.90;86.00;;;;;;5051113;28;20044;-65
2022/12/12 07:42:35;;;;;;;0.00;0.00;;;1.90;86.10;;;;;;5068825;28;20048;-65
2022/12/12 07:45:00;;;;;;;0.00;0.00;;;1.90;86.00;;;;;;5068827;28;20045;-65
2022/12/12 07:47:26;;;;;;;0.00;0.00;;;1.90;86.00;;;;;;5068663;28;20082;-65
2022/12/12 07:49:53;;;;;;;0.00;0.00;;;1.90;86.00;;;;;;5069003;28;20504;-65
2022/12/12 07:52:19;;;;;;;0.00;0.00;;;2.00;85.90;;;;;;5068922;28;20075;-65
2022/12/12 07:54:45;;;;;;;0.00;0.00;;;2.00;85.70;;;;;;5050821;28;20055;-66
2022/12/12 07:57:10;;;;;;;0.00;0.00;;;2.00;85.60;;;;;;5050790;28;20049;-65
2022/12/12 07:59:36;;;;;;;0.00;0.00;;;2.10;85.50;;;;;;5068725;28;20048;-65
2022/12/12 08:02:02;;;;;;;0.00;0.00;;;2.00;85.50;;;;;;5070389;28;20068;-65
2022/12/12 08:04:28;;;;;;;0.00;0.00;;;2.00;85.40;;;;;;5072725;28;20498;-65
2022/12/12 08:06:53;;;;;;;0.00;0.00;;;2.10;85.40;;;;;;5072454;28;20051;-64
2022/12/12 08:09:19;;;;;;;0.10;0.10;;;2.00;85.40;;;;;;5072106;28;20040;-65
2022/12/12 08:11:44;;;;;;;0.00;0.00;;;2.00;85.30;;;;;;5054996;28;20048;-65
2022/12/12 08:14:10;;;;;;;0.10;0.10;;;2.10;85.40;;;;;;5072633;28;20106;-65
2022/12/12 08:16:36;;;;;;;0.00;0.00;;;2.10;85.30;;;;;;5072657;28;20545;-65
2022/12/12 08:19:02;;;;;;;0.00;0.00;;;2.10;85.30;;;;;;5072472;28;20111;-64
2022/12/12 08:21:27;;;;;;;0.00;0.00;;;2.20;85.30;;;;;;5072536;28;20367;-65
2022/12/12 08:23:57;;;;;;;0.10;0.10;;;2.10;85.20;;;;;;5072318;28;20067;-64
2022/12/12 08:26:24;;;;;;;0.00;0.00;;;2.10;85.10;;;;;;5072310;28;20453;-64
2022/12/12 08:28:50;;;;;;;0.00;0.00;;;2.10;85.00;;;;;;5072332;28;20445;-65
2022/12/12 08:31:18;;;;;;;0.00;0.00;;;2.10;85.00;;;;;;5072200;28;20559;-66
2022/12/12 08:33:44;;;;;;;0.03;0.03;;;2.60;89.30;;;;;;5071772;28;20083;-65
2022/12/12 08:36:15;;;;;;;0.00;0.00;;;2.90;87.90;;;;;;5071759;28;20060;-65
2022/12/12 08:38:41;;;;;;;0.00;0.00;;;2.80;87.30;;;;;;5072271;28;20103;-65
2022/12/12 08:41:08;;;;;;;0.00;0.00;;;2.70;86.80;;;;;;5072357;28;20078;-64
2022/12/12 08:43:35;;;;;;;0.00;0.00;;;2.60;86.00;;;;;;5037463;28;20084;-65
2022/12/12 08:46:02;;;;;;;0.43;0.43;;;2.50;85.70;;;;;;5071694;28;20821;-66
2022/12/12 08:48:29;;;;;;;0.00;0.00;;;2.50;85.80;;;;;;5072110;28;20159;-65
2022/12/12 08:50:55;;;;;;;0.08;0.08;;;2.40;85.80;;;;;;5053924;28;20793;-65
2022/12/12 08:53:22;;;;;;;0.05;0.05;;;2.40;85.60;;;;;;5037623;28;20083;-65
2022/12/12 08:55:47;;;;;;;0.00;0.00;;;2.40;85.60;;;;;;5071932;28;20127;-65
2022/12/12 08:58:13;;;;;;;0.00;0.00;;;2.40;85.10;;;;;;5071737;28;20135;-64
2022/12/12 09:00:38;;;;;;;0.00;0.00;;;2.40;86.00;;;;;;5071498;28;20044;-65
2022/12/12 09:03:04;;;;;;;0.00;0.00;;;2.40;85.70;;;;;;5071582;28;20079;-66
2022/12/12 09:05:30;;;;;;;0.40;0.40;;;2.40;85.50;;;;;;5071611;28;20048;-65
2022/12/12 09:07:55;;;;;;;0.00;0.00;;;2.40;85.50;;;;;;5071122;28;20048;-66
2022/12/12 09:10:21;;;;;;;0.00;0.00;;;2.30;85.30;;;;;;5053377;28;20057;-65
2022/12/12 09:12:47;;;;;;;3.92;0.57;;;2.30;85.00;;;;;;5070931;28;20455;-65
2022/12/12 09:15:13;;;;;;;1.05;0.95;;;2.20;85.20;;;;;;5053315;28;20071;-65
2022/12/12 09:17:39;;;;;;;0.40;0.40;;;2.20;85.20;;;;;;5053146;28;20040;-66
2022/12/12 09:20:05;;;;;;;0.00;0.00;;;2.20;85.30;;;;;;5070929;28;20051;-65
2022/12/12 09:22:31;;;;;;;0.00;0.00;;;2.20;85.20;;;;;;5070702;28;20075;-66
2022/12/12 09:24:56;;;;;;;0.43;0.32;;;2.20;85.20;;;;;;5053072;28;20522;-66
2022/12/12 09:27:22;;;;;;;0.20;0.20;;;2.20;85.30;;;;;;5053043;28;20805;-65
2022/12/12 09:29:48;;;;;;;0.10;0.10;;;2.20;85.40;;;;;;5070676;28;20155;-65
2022/12/12 09:32:13;;;;;;;0.00;0.00;;;2.20;85.40;;;;;;5077350;28;20041;-65
2022/12/12 09:34:39;;;;;;;0.00;0.00;;;2.20;85.50;;;;;;5078063;28;20079;-66
2022/12/12 09:37:05;;;;;;;0.00;0.00;;;2.20;85.50;;;;;;5078845;28;20056;-66
2022/12/12 09:39:30;;;;;;;0.00;0.00;;;2.20;85.60;;;;;;5071200;28;20048;-66
2022/12/12 09:41:56;;;;;;;0.10;0.10;;;2.20;85.60;;;;;;5070897;28;20048;-65
2022/12/12 09:44:24;;;;;;;0.70;0.70;;;2.10;85.60;;;;;;5070493;28;20052;-66
2022/12/12 09:47:01;;;;;;;0.00;0.00;;;2.10;85.60;;;;;;5052776;28;20501;-65
2022/12/12 09:49:36;;;;;;;0.00;0.00;;;2.10;85.70;;;;;;5070459;28;20043;-66
2022/12/12 09:52:03;;;;;;;0.47;0.47;;;2.10;85.70;;;;;;5035928;28;20076;-66
2022/12/12 09:54:29;;;;;;;0.03;0.03;;;2.10;85.80;;;;;;5070183;28;20044;-66
2022/12/12 09:57:08;;;;;;;0.22;0.22;;;2.20;85.90;;;;;;5052635;28;20056;-66
2022/12/12 09:59:42;;;;;;;0.00;0.00;;;2.20;85.80;;;;;;5070125;28;20106;-66
2022/12/12 10:02:46;;;;;;;0.10;0.10;;;2.20;85.90;;;;;;5068922;28;20063;-66
2022/12/12 10:05:21;;;;;;;0.00;0.00;;;2.20;85.90;;;;;;5052769;28;20048;-65
2022/12/12 10:08:03;;;;;;;0.00;0.00;;;2.20;85.90;;;;;;5070227;28;20102;-66
2022/12/12 10:10:58;;;;;;;0.00;0.00;;;2.20;85.80;;;;;;5069672;28;20067;-65
2022/12/12 10:13:30;;;;;;;0.00;0.00;;;2.20;86.00;;;;;;5069996;28;20364;-65
2022/12/12 10:16:03;;;;;;;0.10;0.10;;;2.30;86.10;;;;;;5070068;28;20052;-65
2022/12/12 10:18:34;;;;;;;0.00;0.00;;;2.20;85.90;;;;;;5070240;28;20143;-66
2022/12/12 10:21:04;;;;;;;0.00;0.00;;;2.30;86.00;;;;;;5069711;28;20044;-65
2022/12/12 10:23:54;;;;;;;0.03;0.03;;;2.30;86.00;;;;;;5069771;28;20080;-65
2022/12/12 10:26:26;;;;;;;0.28;0.28;;;2.30;85.90;;;;;;5069623;28;20083;-65
2022/12/12 10:28:56;;;;;;;0.00;0.00;;;2.30;86.00;;;;;;5069755;28;20036;-66
2022/12/12 10:31:36;;;;;;;0.00;0.00;;;2.30;86.00;;;;;;5069563;28;20403;-65
2022/12/12 10:34:21;;;;;;;0.10;0.10;;;2.40;86.10;;;;;;5069580;28;20044;-65
2022/12/12 10:37:13;;;;;;;0.10;0.10;;;2.40;86.10;;;;;;5069699;28;20550;-65
2022/12/12 10:40:00;;;;;;;0.28;0.28;;;2.40;86.10;;;;;;5069528;28;20080;-66
2022/12/12 10:42:37;;;;;;;0.00;0.00;;;2.40;86.00;;;;;;5069437;28;20053;-66
2022/12/12 10:45:33;;;;;;;1.00;1.00;;;2.40;85.90;;;;;;5069535;28;20049;-65
2022/12/12 10:47:59;;;;;;;0.00;0.00;;;2.40;85.90;;;;;;5069968;28;20045;-65
2022/12/12 10:50:33;;;;;;;0.00;0.00;;;2.40;86.00;;;;;;5069298;28;20139;-64
2022/12/12 10:53:01;;;;;;;0.00;0.00;;;2.40;85.90;;;;;;5051735;28;20513;-67
2022/12/12 10:55:59;;;;;;;0.00;0.00;;;2.50;85.90;;;;;;5051461;28;20045;-66
2022/12/12 10:58:40;;;;;;;0.00;0.00;;;2.50;85.90;;;;;;5060722;28;20072;-66
2022/12/12 11:01:19;;;;;;;0.00;0.00;;;2.60;85.90;;;;;;5051706;28;20048;-66
2022/12/12 11:03:48;;;;;;;0.20;0.20;;;2.60;85.90;;;;;;5069272;28;20449;-66
2022/12/12 11:06:37;;;;;;;0.00;0.00;;;2.60;85.90;;;;;;5069306;28;20452;-66
2022/12/12 11:09:16;;;;;;;0.10;0.10;;;2.60;85.90;;;;;;5069318;28;20059;-66
2022/12/12 11:12:14;;;;;;;0.00;0.00;;;2.60;85.90;;;;;;5069074;28;20469;-66
2022/12/12 11:14:59;;;;;;;0.77;0.77;;;2.70;85.90;;;;;;5069023;28;20399;-66
2022/12/12 11:17:30;;;;;;;0.00;0.00;;;2.70;85.90;;;;;;5068884;28;20036;-67
2022/12/12 11:19:58;;;;;;;0.00;0.00;;;2.80;86.00;;;;;;5068963;28;20054;-66
2022/12/12 11:22:25;;;;;;;0.00;0.00;;;2.80;85.90;;;;;;5084242;28;20506;-66
2022/12/12 11:24:51;;;;;;;0.00;0.00;;;2.90;86.00;;;;;;5051177;28;20138;-66
2022/12/12 11:27:30;;;;;;;0.00;0.00;;;2.90;85.80;;;;;;5068884;28;20040;-66
2022/12/12 11:30:02;;;;;;;0.00;0.00;;;2.90;85.40;;;;;;5068905;28;20071;-66
2022/12/12 11:32:30;;;;;;;0.00;0.00;;;2.80;85.40;;;;;;5068720;28;20118;-67
2022/12/12 11:35:05;;;;;;;0.08;0.08;;;2.80;85.30;;;;;;5050303;28;20573;-66
2022/12/12 11:37:43;;;;;;;0.00;0.00;;;2.80;85.20;;;;;;5055800;28;20136;-66
2022/12/12 11:40:27;;;;;;;0.10;0.10;;;2.80;85.10;;;;;;5056379;28;20084;-66
2022/12/12 11:43:14;;;;;;;0.10;0.10;;;2.70;84.80;;;;;;5074987;28;20592;-66
2022/12/12 11:45:40;;;;;;;0.17;0.17;;;2.70;84.90;;;;;;5075563;28;20059;-66
2022/12/12 11:48:32;;;;;;;0.52;0.52;;;2.70;84.90;;;;;;5075188;28;20032;-66
2022/12/12 11:50:57;;;;;;;0.65;0.65;;;2.70;85.00;;;;;;5075386;28;20049;-66
2022/12/12 11:53:24;;;;;;;0.10;0.10;;;2.70;85.20;;;;;;5090939;28;20411;-66
2022/12/12 11:55:55;;;;;;;0.00;0.00;;;2.90;85.30;;;;;;5057313;28;20879;-66
2022/12/12 11:58:29;;;;;;;0.20;0.20;;;2.80;85.10;;;;;;5075472;28;20128;-66
2022/12/12 12:01:23;;;;;;;0.00;0.00;;;2.80;85.10;;;;;;5075097;28;20097;-66
2022/12/12 12:04:04;;;;;;;0.00;0.00;;;2.90;85.00;;;;;;5075487;28;20032;-66
2022/12/12 12:06:35;;;;;;;0.10;0.10;;;2.90;85.10;;;;;;5075555;28;20048;-66
2022/12/12 12:09:33;;;;;;;0.00;0.00;;;3.00;85.10;;;;;;5075426;28;20047;-67
2022/12/12 12:12:01;;;;;;;0.00;0.00;;;3.00;84.90;;;;;;5074688;28;20059;-66
2022/12/12 12:14:51;;;;;;;0.00;0.00;;;2.90;84.30;;;;;;5074842;28;20049;-66
2022/12/12 12:17:41;;;;;;;6.45;0.80;;;3.00;84.30;;;;;;5057124;28;20052;-67
2022/12/12 12:20:44;;;;;;;0.00;0.00;;;3.00;84.30;;;;;;5040524;28;20131;-67
2022/12/12 12:23:12;;;;;;;0.00;0.00;;;3.00;84.10;;;;;;5074883;28;20040;-66
2022/12/12 12:25:59;;;;;;;0.00;0.00;;;3.00;83.50;;;;;;5075152;28;20045;-66
2022/12/12 12:28:43;;;;;;;0.00;0.00;;;3.00;83.30;;;;;;5075080;28;20157;-66
2022/12/12 12:31:44;;;;;;;0.00;0.00;;;3.00;83.30;;;;;;5075070;28;20045;-66
2022/12/12 12:34:33;;;;;;;0.00;0.00;;;3.00;83.20;;;;;;5057272;28;20094;-66
2022/12/12 12:37:08;;;;;;;0.00;0.00;;;2.90;82.00;;;;;;5075005;28;20151;-66
2022/12/12 12:39:36;;;;;;;0.10;0.10;;;3.00;82.10;;;;;;5057257;28;20071;-67
2022/12/12 12:42:29;;;;;;;0.52;0.52;;;3.00;81.80;;;;;;5075245;28;20099;-66
2022/12/12 12:45:17;;;;;;;0.00;0.00;;;3.10;81.90;;;;;;5075058;28;20129;-66
2022/12/12 12:47:51;;;;;;;0.10;0.10;;;3.00;81.70;;;;;;5072622;28;20045;-66
2022/12/12 12:50:38;;;;;;;0.10;0.10;;;3.10;81.40;;;;;;5054071;28;20406;-66
2022/12/12 12:53:11;;;;;;;0.00;0.00;;;3.20;81.80;;;;;;5071419;28;20055;-67
2022/12/12 12:55:45;;;;;;;0.00;0.00;;;3.10;80.90;;;;;;5071729;28;20044;-66
2022/12/12 12:58:19;;;;;;;0.52;0.52;;;3.20;81.00;;;;;;5071760;28;20087;-66
2022/12/12 13:00:51;;;;;;;0.10;0.10;;;3.20;81.30;;;;;;5053867;28;20050;-67
2022/12/12 13:03:23;;;;;;;0.10;0.10;;;3.30;81.30;;;;;;5071085;28;20414;-66
2022/12/12 13:05:56;;;;;;;0.00;0.00;;;3.40;81.20;;;;;;5053713;28;20055;-67
2022/12/12 13:08:46;;;;;;;0.00;0.00;;;3.30;80.80;;;;;;5071317;28;20056;-67
2022/12/12 13:11:27;;;;;;;0.00;0.00;;;3.40;80.60;;;;;;5071424;28;20040;-66
2022/12/12 13:14:01;;;;;;;0.00;0.00;;;3.40;80.70;;;;;;5071119;28;20044;-66
2022/12/12 13:16:31;;;;;;;0.00;0.00;;;3.30;79.80;;;;;;5070654;28;20673;-67
2022/12/12 13:19:23;;;;;;;0.00;0.00;;;3.30;80.00;;;;;;5053376;28;20049;-67
2022/12/12 13:22:03;;;;;;;0.00;0.00;;;3.20;80.00;;;;;;5031396;28;20049;-66
2022/12/12 13:24:42;;;;;;;0.00;0.00;;;3.20;80.40;;;;;;5030627;28;20108;-67
2022/12/12 13:27:21;;;;;;;0.43;0.43;;;3.20;80.70;;;;;;5031143;28;20050;-66
2022/12/12 13:30:14;;;;;;;0.20;0.20;;;3.20;80.70;;;;;;5030878;28;20037;-66
2022/12/12 13:33:26;;;;;;;0.00;0.00;;;3.20;80.60;;;;;;5030633;28;20045;-67
2022/12/12 13:36:05;;;;;;;0.00;0.00;;;3.20;80.80;;;;;;4953396;28;20058;-66
2022/12/12 13:38:32;;;;;;;0.50;0.35;;;3.30;81.00;;;;;;5025977;28;20049;-66
2022/12/12 13:41:05;;;;;;;0.05;0.05;;;3.30;81.10;;;;;;5030563;28;20120;-66